sensor_id;sensor_type;location;lat;lon;timestamp;pressure;altitude;pressure_sealevel;temperature;humidity
71970;BME280;59838;52.152;5.436;2024-01-25T00:01:20;102801.09;;;7.22;100.00
71970;BME280;59838;52.152;5.436;2024-01-25T00:03:47;102802.41;;;7.16;100.00
71970;BME280;59838;52.152;5.436;2024-01-25T00:06:15;102799.81;;;7.16;100.00
71970;BME280;59838;52.152;5.436;2024-01-25T00:08:41;102799.91;;;7.14;100.00
71970;BME280;59838;52.152;5.436;2024-01-25T00:11:08;102811.28;;;7.12;100.00
71970;BME280;59838;52.152;5.436;2024-01-25T00:13:35;102815.66;;;7.11;100.00
71970;BME280;59838;52.152;5.436;2024-01-25T00:16:05;102813.16;;;7.10;100.00
71970;BME280;59838;52.152;5.436;2024-01-25T00:18:31;102813.97;;;7.10;100.00
71970;BME280;59838;52.152;5.436;2024-01-25T00:20:58;102806.94;;;7.12;100.00
71970;BME280;59838;52.152;5.436;2024-01-25T00:23:25;102810.69;;;7.08;100.00
71970;BME280;59838;52.152;5.436;2024-01-25T00:25:52;102809.34;;;7.03;100.00
71970;BME280;59838;52.152;5.436;2024-01-25T00:28:19;102812.16;;;7.00;100.00
71970;BME280;59838;52.152;5.436;2024-01-25T00:30:45;102816.72;;;6.96;100.00
71970;BME280;59838;52.152;5.436;2024-01-25T00:33:12;102810.84;;;6.94;100.00
71970;BME280;59838;52.152;5.436;2024-01-25T00:35:39;102807.66;;;6.90;100.00
71970;BME280;59838;52.152;5.436;2024-01-25T00:38:06;102806.72;;;6.91;100.00
71970;BME280;59838;52.152;5.436;2024-01-25T00:40:33;102814.81;;;6.87;100.00
71970;BME280;59838;52.152;5.436;2024-01-25T00:42:59;102818.75;;;6.80;100.00
71970;BME280;59838;52.152;5.436;2024-01-25T00:45:26;102811.31;;;6.75;100.00
71970;BME280;59838;52.152;5.436;2024-01-25T00:47:53;102821.97;;;6.70;100.00
71970;BME280;59838;52.152;5.436;2024-01-25T00:50:20;102826.44;;;6.68;100.00
71970;BME280;59838;52.152;5.436;2024-01-25T00:52:52;102824.28;;;6.62;100.00
71970;BME280;59838;52.152;5.436;2024-01-25T00:55:19;102830.28;;;6.63;100.00
71970;BME280;59838;52.152;5.436;2024-01-25T00:57:46;102839.06;;;6.60;100.00
71970;BME280;59838;52.152;5.436;2024-01-25T01:00:13;102840.19;;;6.56;100.00
71970;BME280;59838;52.152;5.436;2024-01-25T01:02:42;102849.81;;;6.54;100.00
71970;BME280;59838;52.152;5.436;2024-01-25T01:05:10;102849.09;;;6.52;100.00
71970;BME280;59838;52.152;5.436;2024-01-25T01:07:38;102843.53;;;6.45;100.00
71970;BME280;59838;52.152;5.436;2024-01-25T01:10:08;102832.81;;;6.38;100.00
71970;BME280;59838;52.152;5.436;2024-01-25T01:12:35;102843.56;;;6.32;100.00
71970;BME280;59838;52.152;5.436;2024-01-25T01:15:03;102855.22;;;6.25;100.00
71970;BME280;59838;52.152;5.436;2024-01-25T01:17:30;102847.69;;;6.22;100.00
71970;BME280;59838;52.152;5.436;2024-01-25T01:19:56;102838.59;;;6.16;100.00
71970;BME280;59838;52.152;5.436;2024-01-25T01:22:23;102851.81;;;6.12;100.00
71970;BME280;59838;52.152;5.436;2024-01-25T01:24:49;102855.75;;;6.04;100.00
71970;BME280;59838;52.152;5.436;2024-01-25T01:27:16;102857.06;;;5.97;100.00
71970;BME280;59838;52.152;5.436;2024-01-25T01:29:42;102859.41;;;5.88;100.00
71970;BME280;59838;52.152;5.436;2024-01-25T01:32:09;102862.38;;;5.81;100.00
71970;BME280;59838;52.152;5.436;2024-01-25T01:34:35;102864.44;;;5.76;100.00
71970;BME280;59838;52.152;5.436;2024-01-25T01:37:02;102867.88;;;5.77;100.00
71970;BME280;59838;52.152;5.436;2024-01-25T01:39:29;102862.47;;;5.67;100.00
71970;BME280;59838;52.152;5.436;2024-01-25T01:41:55;102854.28;;;5.60;100.00
71970;BME280;59838;52.152;5.436;2024-01-25T01:44:22;102855.53;;;5.55;100.00
71970;BME280;59838;52.152;5.436;2024-01-25T01:46:48;102862.66;;;5.51;100.00
71970;BME280;59838;52.152;5.436;2024-01-25T01:49:16;102874.06;;;5.47;100.00
71970;BME280;59838;52.152;5.436;2024-01-25T01:51:43;102870.16;;;5.41;100.00
71970;BME280;59838;52.152;5.436;2024-01-25T01:54:10;102865.47;;;5.34;100.00
71970;BME280;59838;52.152;5.436;2024-01-25T01:56:37;102864.94;;;5.28;100.00
71970;BME280;59838;52.152;5.436;2024-01-25T01:59:09;102871.38;;;5.21;100.00
71970;BME280;59838;52.152;5.436;2024-01-25T02:01:39;102873.63;;;5.13;100.00
71970;BME280;59838;52.152;5.436;2024-01-25T02:04:05;102877.53;;;5.06;100.00
71970;BME280;59838;52.152;5.436;2024-01-25T02:06:33;102882.25;;;4.99;100.00
71970;BME280;59838;52.152;5.436;2024-01-25T02:09:00;102880.13;;;4.91;100.00
71970;BME280;59838;52.152;5.436;2024-01-25T02:11:27;102884.66;;;4.88;100.00
71970;BME280;59838;52.152;5.436;2024-01-25T02:13:55;102893.56;;;4.82;100.00
71970;BME280;59838;52.152;5.436;2024-01-25T02:16:22;102893.19;;;4.74;100.00
71970;BME280;59838;52.152;5.436;2024-01-25T02:18:49;102896.13;;;4.68;100.00
71970;BME280;59838;52.152;5.436;2024-01-25T02:21:16;102906.84;;;4.62;100.00
71970;BME280;59838;52.152;5.436;2024-01-25T02:23:43;102917.50;;;4.55;100.00
71970;BME280;59838;52.152;5.436;2024-01-25T02:26:09;102912.53;;;4.52;100.00
71970;BME280;59838;52.152;5.436;2024-01-25T02:28:36;102916.28;;;4.47;100.00
71970;BME280;59838;52.152;5.436;2024-01-25T02:31:03;102925.94;;;4.43;100.00
71970;BME280;59838;52.152;5.436;2024-01-25T02:33:29;102921.03;;;4.38;100.00
71970;BME280;59838;52.152;5.436;2024-01-25T02:35:57;102916.16;;;4.34;100.00
71970;BME280;59838;52.152;5.436;2024-01-25T02:38:23;102916.47;;;4.29;100.00
71970;BME280;59838;52.152;5.436;2024-01-25T02:40:50;102924.34;;;4.26;100.00
71970;BME280;59838;52.152;5.436;2024-01-25T02:43:17;102922.88;;;4.22;100.00
71970;BME280;59838;52.152;5.436;2024-01-25T02:45:43;102927.38;;;4.18;100.00
71970;BME280;59838;52.152;5.436;2024-01-25T02:48:10;102932.78;;;4.14;100.00
71970;BME280;59838;52.152;5.436;2024-01-25T02:50:37;102931.41;;;4.08;100.00
71970;BME280;59838;52.152;5.436;2024-01-25T02:53:04;102932.47;;;4.04;100.00
71970;BME280;59838;52.152;5.436;2024-01-25T02:55:31;102931.91;;;3.99;100.00
71970;BME280;59838;52.152;5.436;2024-01-25T02:57:57;102936.41;;;3.95;100.00
71970;BME280;59838;52.152;5.436;2024-01-25T03:00:24;102938.31;;;3.92;100.00
71970;BME280;59838;52.152;5.436;2024-01-25T03:02:50;102942.72;;;3.90;100.00
71970;BME280;59838;52.152;5.436;2024-01-25T03:05:17;102940.22;;;3.88;100.00
71970;BME280;59838;52.152;5.436;2024-01-25T03:07:44;102935.34;;;3.83;100.00
71970;BME280;59838;52.152;5.436;2024-01-25T03:10:12;102933.88;;;3.79;100.00
71970;BME280;59838;52.152;5.436;2024-01-25T03:12:40;102927.22;;;3.75;100.00
71970;BME280;59838;52.152;5.436;2024-01-25T03:15:07;102928.31;;;3.71;100.00
71970;BME280;59838;52.152;5.436;2024-01-25T03:17:33;102937.94;;;3.67;100.00
71970;BME280;59838;52.152;5.436;2024-01-25T03:20:00;102933.88;;;3.63;100.00
71970;BME280;59838;52.152;5.436;2024-01-25T03:22:27;102932.38;;;3.59;100.00
71970;BME280;59838;52.152;5.436;2024-01-25T03:24:53;102931.72;;;3.56;100.00
71970;BME280;59838;52.152;5.436;2024-01-25T03:27:20;102941.28;;;3.54;100.00
71970;BME280;59838;52.152;5.436;2024-01-25T03:29:46;102934.56;;;3.51;100.00
71970;BME280;59838;52.152;5.436;2024-01-25T03:32:13;102942.44;;;3.48;100.00
71970;BME280;59838;52.152;5.436;2024-01-25T03:34:39;102931.41;;;3.46;100.00
71970;BME280;59838;52.152;5.436;2024-01-25T03:37:06;102934.22;;;3.41;100.00
71970;BME280;59838;52.152;5.436;2024-01-25T03:39:33;102930.91;;;3.39;100.00
71970;BME280;59838;52.152;5.436;2024-01-25T03:41:59;102930.19;;;3.37;100.00
71970;BME280;59838;52.152;5.436;2024-01-25T03:44:26;102934.63;;;3.34;100.00
71970;BME280;59838;52.152;5.436;2024-01-25T03:46:52;102924.56;;;3.31;100.00
71970;BME280;59838;52.152;5.436;2024-01-25T03:49:19;102915.41;;;3.25;100.00
71970;BME280;59838;52.152;5.436;2024-01-25T03:51:46;102926.88;;;3.19;100.00
71970;BME280;59838;52.152;5.436;2024-01-25T03:54:12;102928.00;;;3.14;100.00
71970;BME280;59838;52.152;5.436;2024-01-25T03:56:39;102928.34;;;3.07;100.00
71970;BME280;59838;52.152;5.436;2024-01-25T03:59:05;102932.81;;;3.04;100.00
71970;BME280;59838;52.152;5.436;2024-01-25T04:01:45;102939.94;;;2.99;100.00
71970;BME280;59838;52.152;5.436;2024-01-25T04:04:14;102941.00;;;2.95;100.00
71970;BME280;59838;52.152;5.436;2024-01-25T04:06:42;102941.06;;;2.93;100.00
71970;BME280;59838;52.152;5.436;2024-01-25T04:09:10;102935.94;;;2.93;100.00
71970;BME280;59838;52.152;5.436;2024-01-25T04:11:37;102928.16;;;2.95;100.00
71970;BME280;59838;52.152;5.436;2024-01-25T04:14:04;102925.50;;;2.96;100.00
71970;BME280;59838;52.152;5.436;2024-01-25T04:16:32;102935.03;;;2.94;100.00
71970;BME280;59838;52.152;5.436;2024-01-25T04:18:59;102923.94;;;2.93;100.00
71970;BME280;59838;52.152;5.436;2024-01-25T04:21:27;102937.59;;;2.94;100.00
71970;BME280;59838;52.152;5.436;2024-01-25T04:23:54;102940.25;;;2.92;100.00
71970;BME280;59838;52.152;5.436;2024-01-25T04:26:20;102936.19;;;2.88;100.00
71970;BME280;59838;52.152;5.436;2024-01-25T04:28:47;102934.59;;;2.86;100.00
71970;BME280;59838;52.152;5.436;2024-01-25T04:31:13;102937.50;;;2.80;100.00
71970;BME280;59838;52.152;5.436;2024-01-25T04:33:41;102935.22;;;2.73;100.00
71970;BME280;59838;52.152;5.436;2024-01-25T04:36:13;102936.25;;;2.71;100.00
71970;BME280;59838;52.152;5.436;2024-01-25T04:38:40;102930.44;;;2.67;100.00
71970;BME280;59838;52.152;5.436;2024-01-25T04:41:07;102933.31;;;2.61;100.00
71970;BME280;59838;52.152;5.436;2024-01-25T04:43:34;102934.38;;;2.57;100.00
71970;BME280;59838;52.152;5.436;2024-01-25T04:46:02;102930.16;;;2.56;100.00
71970;BME280;59838;52.152;5.436;2024-01-25T04:48:29;102938.81;;;2.53;100.00
71970;BME280;59838;52.152;5.436;2024-01-25T04:50:57;102945.00;;;2.49;100.00
71970;BME280;59838;52.152;5.436;2024-01-25T04:53:26;102945.25;;;2.45;100.00
71970;BME280;59838;52.152;5.436;2024-01-25T04:55:54;102945.41;;;2.42;100.00
71970;BME280;59838;52.152;5.436;2024-01-25T04:58:20;102942.00;;;2.41;100.00
71970;BME280;59838;52.152;5.436;2024-01-25T05:00:47;102942.06;;;2.40;100.00
71970;BME280;59838;52.152;5.436;2024-01-25T05:03:14;102944.03;;;2.34;100.00
71970;BME280;59838;52.152;5.436;2024-01-25T05:05:40;102948.44;;;2.32;100.00
71970;BME280;59838;52.152;5.436;2024-01-25T05:08:07;102949.66;;;2.25;100.00
71970;BME280;59838;52.152;5.436;2024-01-25T05:10:33;102949.72;;;2.24;100.00
71970;BME280;59838;52.152;5.436;2024-01-25T05:13:00;102941.97;;;2.25;100.00
71970;BME280;59838;52.152;5.436;2024-01-25T05:15:26;102941.03;;;2.26;100.00
71970;BME280;59838;52.152;5.436;2024-01-25T05:17:53;102943.75;;;2.23;100.00
71970;BME280;59838;52.152;5.436;2024-01-25T05:20:19;102945.50;;;2.23;100.00
71970;BME280;59838;52.152;5.436;2024-01-25T05:22:46;102949.03;;;2.20;100.00
71970;BME280;59838;52.152;5.436;2024-01-25T05:25:13;102946.47;;;2.20;100.00
71970;BME280;59838;52.152;5.436;2024-01-25T05:27:39;102954.47;;;2.14;100.00
71970;BME280;59838;52.152;5.436;2024-01-25T05:30:06;102951.22;;;2.10;100.00
71970;BME280;59838;52.152;5.436;2024-01-25T05:32:33;102959.03;;;2.07;100.00
71970;BME280;59838;52.152;5.436;2024-01-25T05:35:00;102959.22;;;2.04;100.00
71970;BME280;59838;52.152;5.436;2024-01-25T05:37:27;102959.28;;;2.03;100.00
71970;BME280;59838;52.152;5.436;2024-01-25T05:39:53;102967.94;;;2.00;100.00
71970;BME280;59838;52.152;5.436;2024-01-25T05:42:20;102969.63;;;2.01;100.00
71970;BME280;59838;52.152;5.436;2024-01-25T05:44:46;102974.88;;;1.98;100.00
71970;BME280;59838;52.152;5.436;2024-01-25T05:47:13;102977.53;;;1.96;100.00
71970;BME280;59838;52.152;5.436;2024-01-25T05:49:40;102972.47;;;1.95;100.00
71970;BME280;59838;52.152;5.436;2024-01-25T05:52:06;102970.88;;;1.92;100.00
71970;BME280;59838;52.152;5.436;2024-01-25T05:54:33;102974.44;;;1.90;100.00
71970;BME280;59838;52.152;5.436;2024-01-25T05:56:59;102969.22;;;1.91;100.00
71970;BME280;59838;52.152;5.436;2024-01-25T05:59:26;102963.94;;;1.94;100.00
71970;BME280;59838;52.152;5.436;2024-01-25T06:01:52;102968.03;;;1.98;100.00
71970;BME280;59838;52.152;5.436;2024-01-25T06:04:19;102974.81;;;1.99;100.00
71970;BME280;59838;52.152;5.436;2024-01-25T06:06:45;102978.50;;;1.94;100.00
71970;BME280;59838;52.152;5.436;2024-01-25T06:09:12;102983.69;;;1.92;100.00
71970;BME280;59838;52.152;5.436;2024-01-25T06:11:44;102984.69;;;1.90;100.00
71970;BME280;59838;52.152;5.436;2024-01-25T06:14:11;102984.69;;;1.90;100.00
71970;BME280;59838;52.152;5.436;2024-01-25T06:16:38;102976.00;;;1.92;100.00
71970;BME280;59838;52.152;5.436;2024-01-25T06:19:04;102980.09;;;1.96;100.00
71970;BME280;59838;52.152;5.436;2024-01-25T06:21:31;102977.59;;;1.95;100.00
71970;BME280;59838;52.152;5.436;2024-01-25T06:24:00;102987.25;;;1.90;100.00
71970;BME280;59838;52.152;5.436;2024-01-25T06:26:26;102987.38;;;1.87;100.00
71970;BME280;59838;52.152;5.436;2024-01-25T06:28:53;102990.69;;;1.89;100.00
71970;BME280;59838;52.152;5.436;2024-01-25T06:31:19;102986.47;;;1.88;100.00
71970;BME280;59838;52.152;5.436;2024-01-25T06:33:46;102995.75;;;1.90;100.00
71970;BME280;59838;52.152;5.436;2024-01-25T06:36:17;102992.44;;;1.88;100.00
71970;BME280;59838;52.152;5.436;2024-01-25T06:38:43;102996.94;;;1.83;100.00
71970;BME280;59838;52.152;5.436;2024-01-25T06:41:10;102998.88;;;1.78;100.00
71970;BME280;59838;52.152;5.436;2024-01-25T06:43:37;103002.38;;;1.77;100.00
71970;BME280;59838;52.152;5.436;2024-01-25T06:46:05;103006.50;;;1.79;100.00
71970;BME280;59838;52.152;5.436;2024-01-25T06:48:32;103001.97;;;1.85;100.00
71970;BME280;59838;52.152;5.436;2024-01-25T06:50:59;102993.25;;;1.89;100.00
71970;BME280;59838;52.152;5.436;2024-01-25T06:53:27;102988.00;;;1.92;100.00
71970;BME280;59838;52.152;5.436;2024-01-25T06:55:54;102996.72;;;1.88;100.00
71970;BME280;59838;52.152;5.436;2024-01-25T06:58:20;102997.84;;;1.82;100.00
71970;BME280;59838;52.152;5.436;2024-01-25T07:00:47;103009.91;;;1.80;100.00
71970;BME280;59838;52.152;5.436;2024-01-25T07:03:15;103009.75;;;1.83;100.00
71970;BME280;59838;52.152;5.436;2024-01-25T07:05:42;103008.09;;;1.82;100.00
71970;BME280;59838;52.152;5.436;2024-01-25T07:08:09;103004.63;;;1.83;100.00
71970;BME280;59838;52.152;5.436;2024-01-25T07:10:40;102995.91;;;1.87;100.00
71970;BME280;59838;52.152;5.436;2024-01-25T07:13:06;102989.75;;;1.91;100.00
71970;BME280;59838;52.152;5.436;2024-01-25T07:15:33;102998.09;;;1.95;100.00
71970;BME280;59838;52.152;5.436;2024-01-25T07:18:00;103000.47;;;1.99;100.00
71970;BME280;59838;52.152;5.436;2024-01-25T07:20:27;102998.84;;;1.97;100.00
71970;BME280;59838;52.152;5.436;2024-01-25T07:22:54;103011.81;;;1.94;100.00
71970;BME280;59838;52.152;5.436;2024-01-25T07:25:21;103011.13;;;1.90;100.00
71970;BME280;59838;52.152;5.436;2024-01-25T07:27:47;103006.81;;;1.91;100.00
71970;BME280;59838;52.152;5.436;2024-01-25T07:30:16;103010.72;;;1.99;100.00
71970;BME280;59838;52.152;5.436;2024-01-25T07:32:42;103011.19;;;2.08;100.00
71970;BME280;59838;52.152;5.436;2024-01-25T07:35:09;103005.91;;;2.11;100.00
71970;BME280;59838;52.152;5.436;2024-01-25T07:37:39;103003.41;;;2.09;100.00
71970;BME280;59838;52.152;5.436;2024-01-25T07:40:09;102992.44;;;2.06;100.00
71970;BME280;59838;52.152;5.436;2024-01-25T07:42:36;103001.13;;;2.03;100.00
71970;BME280;59838;52.152;5.436;2024-01-25T07:45:03;102998.50;;;2.05;100.00
71970;BME280;59838;52.152;5.436;2024-01-25T07:47:29;103005.97;;;2.09;100.00
71970;BME280;59838;52.152;5.436;2024-01-25T07:49:56;102994.59;;;2.15;100.00
71970;BME280;59838;52.152;5.436;2024-01-25T07:52:23;102994.28;;;2.21;100.00
71970;BME280;59838;52.152;5.436;2024-01-25T07:54:52;102983.75;;;2.27;100.00
71970;BME280;59838;52.152;5.436;2024-01-25T07:57:20;102984.50;;;2.29;100.00
71970;BME280;59838;52.152;5.436;2024-01-25T07:59:46;102986.97;;;2.31;100.00
71970;BME280;59838;52.152;5.436;2024-01-25T08:02:12;102993.94;;;2.29;100.00
71970;BME280;59838;52.152;5.436;2024-01-25T08:04:42;102989.53;;;2.31;100.00
71970;BME280;59838;52.152;5.436;2024-01-25T08:07:09;102993.53;;;2.36;100.00
71970;BME280;59838;52.152;5.436;2024-01-25T08:09:35;102988.25;;;2.40;100.00
71970;BME280;59838;52.152;5.436;2024-01-25T08:12:02;103003.50;;;2.43;100.00
71970;BME280;59838;52.152;5.436;2024-01-25T08:14:29;103005.16;;;2.44;100.00
71970;BME280;59838;52.152;5.436;2024-01-25T08:16:55;103016.84;;;2.49;100.00
71970;BME280;59838;52.152;5.436;2024-01-25T08:19:22;103016.63;;;2.54;100.00
71970;BME280;59838;52.152;5.436;2024-01-25T08:21:48;103026.81;;;2.55;100.00
71970;BME280;59838;52.152;5.436;2024-01-25T08:24:16;103020.72;;;2.58;100.00
71970;BME280;59838;52.152;5.436;2024-01-25T08:26:42;103020.50;;;2.63;100.00
71970;BME280;59838;52.152;5.436;2024-01-25T08:29:09;103020.16;;;2.69;100.00
71970;BME280;59838;52.152;5.436;2024-01-25T08:31:35;103013.16;;;2.72;100.00
71970;BME280;59838;52.152;5.436;2024-01-25T08:34:02;103018.00;;;2.79;100.00
71970;BME280;59838;52.152;5.436;2024-01-25T08:36:29;103007.47;;;2.83;100.00
71970;BME280;59838;52.152;5.436;2024-01-25T08:38:55;103007.22;;;2.88;100.00
71970;BME280;59838;52.152;5.436;2024-01-25T08:41:22;103013.72;;;2.95;100.00
71970;BME280;59838;52.152;5.436;2024-01-25T08:43:48;103019.31;;;3.03;100.00
71970;BME280;59838;52.152;5.436;2024-01-25T08:46:15;103022.31;;;3.11;100.00
71970;BME280;59838;52.152;5.436;2024-01-25T08:48:44;103021.84;;;3.21;100.00
71970;BME280;59838;52.152;5.436;2024-01-25T08:51:11;103021.16;;;3.33;100.00
71970;BME280;59838;52.152;5.436;2024-01-25T08:53:37;103018.13;;;3.42;100.00
71970;BME280;59838;52.152;5.436;2024-01-25T08:56:04;103036.63;;;3.49;100.00
71970;BME280;59838;52.152;5.436;2024-01-25T08:58:31;103029.31;;;3.57;100.00
71970;BME280;59838;52.152;5.436;2024-01-25T09:00:58;103030.66;;;3.64;100.00
71970;BME280;59838;52.152;5.436;2024-01-25T09:03:25;103027.56;;;3.74;100.00
71970;BME280;59838;52.152;5.436;2024-01-25T09:05:52;103011.91;;;3.78;100.00
71970;BME280;59838;52.152;5.436;2024-01-25T09:08:19;103027.75;;;3.87;100.00
71970;BME280;59838;52.152;5.436;2024-01-25T09:10:46;103019.69;;;3.93;100.00
71970;BME280;59838;52.152;5.436;2024-01-25T09:13:13;103015.84;;;4.00;100.00
71970;BME280;59838;52.152;5.436;2024-01-25T09:15:40;103028.28;;;4.08;100.00
71970;BME280;59838;52.152;5.436;2024-01-25T09:18:07;103025.38;;;4.14;100.00
71970;BME280;59838;52.152;5.436;2024-01-25T09:20:33;103035.44;;;4.18;100.00
71970;BME280;59838;52.152;5.436;2024-01-25T09:23:00;103038.56;;;4.24;100.00
71970;BME280;59838;52.152;5.436;2024-01-25T09:25:26;103044.28;;;4.29;100.00
71970;BME280;59838;52.152;5.436;2024-01-25T09:27:53;103038.69;;;4.36;100.00
71970;BME280;59838;52.152;5.436;2024-01-25T09:30:22;103042.47;;;4.45;100.00
71970;BME280;59838;52.152;5.436;2024-01-25T09:32:49;103032.56;;;4.53;100.00
71970;BME280;59838;52.152;5.436;2024-01-25T09:35:16;103025.34;;;4.60;100.00
71970;BME280;59838;52.152;5.436;2024-01-25T09:37:43;103024.16;;;4.66;100.00
71970;BME280;59838;52.152;5.436;2024-01-25T09:40:10;103008.53;;;4.69;100.00
71970;BME280;59838;52.152;5.436;2024-01-25T09:42:38;103018.47;;;4.75;100.00
71970;BME280;59838;52.152;5.436;2024-01-25T09:45:06;103015.63;;;4.80;100.00
71970;BME280;59838;52.152;5.436;2024-01-25T09:47:34;103022.31;;;4.82;100.00
71970;BME280;59838;52.152;5.436;2024-01-25T09:50:01;103031.44;;;4.88;100.00
71970;BME280;59838;52.152;5.436;2024-01-25T09:52:29;103027.66;;;4.93;100.00
71970;BME280;59838;52.152;5.436;2024-01-25T09:54:56;103025.66;;;4.99;100.00
71970;BME280;59838;52.152;5.436;2024-01-25T09:57:24;103022.72;;;5.05;100.00
71970;BME280;59838;52.152;5.436;2024-01-25T09:59:54;103016.19;;;5.13;100.00
71970;BME280;59838;52.152;5.436;2024-01-25T10:02:24;103006.25;;;5.22;100.00
71970;BME280;59838;52.152;5.436;2024-01-25T10:04:51;102997.00;;;5.32;100.00
71970;BME280;59838;52.152;5.436;2024-01-25T10:07:40;102996.56;;;5.40;100.00
71970;BME280;59838;52.152;5.436;2024-01-25T10:10:08;103002.78;;;5.50;100.00
71970;BME280;59838;52.152;5.436;2024-01-25T10:12:45;102993.75;;;5.57;100.00
71970;BME280;59838;52.152;5.436;2024-01-25T10:15:11;102994.19;;;5.64;100.00
71970;BME280;59838;52.152;5.436;2024-01-25T10:17:38;103014.41;;;5.70;100.00
71970;BME280;59838;52.152;5.436;2024-01-25T10:20:25;103014.03;;;5.76;100.00
71970;BME280;59838;52.152;5.436;2024-01-25T10:22:57;103001.56;;;5.83;100.00
71970;BME280;59838;52.152;5.436;2024-01-25T10:25:26;103002.75;;;5.92;100.00
71970;BME280;59838;52.152;5.436;2024-01-25T10:27:54;103002.56;;;5.95;100.00
71970;BME280;59838;52.152;5.436;2024-01-25T10:30:20;103013.34;;;6.01;100.00
71970;BME280;59838;52.152;5.436;2024-01-25T10:32:48;103012.97;;;6.08;100.00
71970;BME280;59838;52.152;5.436;2024-01-25T10:35:18;102995.31;;;6.14;100.00
71970;BME280;59838;52.152;5.436;2024-01-25T10:37:49;102997.41;;;6.22;100.00
71970;BME280;59838;52.152;5.436;2024-01-25T10:40:19;102992.75;;;6.27;100.00
71970;BME280;59838;52.152;5.436;2024-01-25T10:42:46;102989.78;;;6.33;100.00
71970;BME280;59838;52.152;5.436;2024-01-25T10:45:14;102991.13;;;6.39;100.00
71970;BME280;59838;52.152;5.436;2024-01-25T10:47:41;102995.16;;;6.43;100.00
71970;BME280;59838;52.152;5.436;2024-01-25T10:50:08;102985.56;;;6.45;100.00
71970;BME280;59838;52.152;5.436;2024-01-25T10:52:37;102995.59;;;6.50;100.00
71970;BME280;59838;52.152;5.436;2024-01-25T10:55:04;102989.78;;;6.59;100.00
71970;BME280;59838;52.152;5.436;2024-01-25T10:57:36;102989.97;;;6.69;100.00
71970;BME280;59838;52.152;5.436;2024-01-25T11:00:09;102980.41;;;6.71;100.00
71970;BME280;59838;52.152;5.436;2024-01-25T11:02:36;102976.66;;;6.75;100.00
71970;BME280;59838;52.152;5.436;2024-01-25T11:05:23;102985.88;;;6.79;100.00
71970;BME280;59838;52.152;5.436;2024-01-25T11:07:50;102979.53;;;6.83;100.00
71970;BME280;59838;52.152;5.436;2024-01-25T11:10:19;102950.09;;;6.86;100.00
71970;BME280;59838;52.152;5.436;2024-01-25T11:12:57;102941.19;;;6.90;100.00
71970;BME280;59838;52.152;5.436;2024-01-25T11:15:30;102938.19;;;6.96;100.00
71970;BME280;59838;52.152;5.436;2024-01-25T11:17:58;102948.22;;;7.01;100.00
71970;BME280;59838;52.152;5.436;2024-01-25T11:20:26;102940.25;;;7.04;100.00
71970;BME280;59838;52.152;5.436;2024-01-25T11:23:02;102939.81;;;7.10;100.00
71970;BME280;59838;52.152;5.436;2024-01-25T11:25:30;102942.19;;;7.13;100.00
71970;BME280;59838;52.152;5.436;2024-01-25T11:27:57;102941.88;;;7.18;100.00
71970;BME280;59838;52.152;5.436;2024-01-25T11:30:29;102944.94;;;7.23;100.00
71970;BME280;59838;52.152;5.436;2024-01-25T11:32:56;102942.75;;;7.29;100.00
71970;BME280;59838;52.152;5.436;2024-01-25T11:35:23;102939.25;;;7.30;100.00
71970;BME280;59838;52.152;5.436;2024-01-25T11:37:52;102923.50;;;7.33;100.00
71970;BME280;59838;52.152;5.436;2024-01-25T11:40:19;102901.88;;;7.35;100.00
71970;BME280;59838;52.152;5.436;2024-01-25T11:42:50;102908.50;;;7.39;100.00
71970;BME280;59838;52.152;5.436;2024-01-25T11:45:17;102907.91;;;7.46;100.00
71970;BME280;59838;52.152;5.436;2024-01-25T11:47:44;102911.63;;;7.55;100.00
71970;BME280;59838;52.152;5.436;2024-01-25T11:50:12;102907.03;;;7.59;100.00
71970;BME280;59838;52.152;5.436;2024-01-25T11:52:39;102906.59;;;7.65;100.00
71970;BME280;59838;52.152;5.436;2024-01-25T11:55:07;102896.84;;;7.68;100.00
71970;BME280;59838;52.152;5.436;2024-01-25T11:57:38;102875.22;;;7.69;100.00
71970;BME280;59838;52.152;5.436;2024-01-25T12:00:09;102869.09;;;7.71;100.00
71970;BME280;59838;52.152;5.436;2024-01-25T12:02:39;102868.28;;;7.70;100.00
71970;BME280;59838;52.152;5.436;2024-01-25T12:05:05;102872.00;;;7.66;100.00
71970;BME280;59838;52.152;5.436;2024-01-25T12:07:33;102875.56;;;7.65;100.00
71970;BME280;59838;52.152;5.436;2024-01-25T12:10:03;102884.25;;;7.64;100.00
71970;BME280;59838;52.152;5.436;2024-01-25T12:12:30;102880.94;;;7.62;100.00
71970;BME280;59838;52.152;5.436;2024-01-25T12:15:04;102874.22;;;7.59;100.00
71970;BME280;59838;52.152;5.436;2024-01-25T12:17:32;102868.94;;;7.61;100.00
71970;BME280;59838;52.152;5.436;2024-01-25T12:19:59;102859.44;;;7.61;100.00
71970;BME280;59838;52.152;5.436;2024-01-25T12:22:27;102858.25;;;7.65;100.00
71970;BME280;59838;52.152;5.436;2024-01-25T12:24:55;102858.03;;;7.68;100.00
71970;BME280;59838;52.152;5.436;2024-01-25T12:27:26;102857.81;;;7.72;100.00
71970;BME280;59838;52.152;5.436;2024-01-25T12:29:53;102859.59;;;7.71;100.00
71970;BME280;59838;52.152;5.436;2024-01-25T12:32:22;102854.41;;;7.71;100.00
71970;BME280;59838;52.152;5.436;2024-01-25T12:35:07;102856.03;;;7.72;100.00
71970;BME280;59838;52.152;5.436;2024-01-25T12:37:35;102846.16;;;7.77;100.00
71970;BME280;59838;52.152;5.436;2024-01-25T12:40:02;102847.72;;;7.80;100.00
71970;BME280;59838;52.152;5.436;2024-01-25T12:42:29;102843.13;;;7.83;100.00
71970;BME280;59838;52.152;5.436;2024-01-25T12:44:55;102842.44;;;7.93;100.00
71970;BME280;59838;52.152;5.436;2024-01-25T12:47:22;102846.22;;;8.00;100.00
71970;BME280;59838;52.152;5.436;2024-01-25T12:49:49;102840.47;;;8.08;100.00
71970;BME280;59838;52.152;5.436;2024-01-25T12:52:15;102833.41;;;8.10;100.00